Accueil
METAR-TAF:

METAR-TAF

Aéroports :

Aéroport des îles Cocos

Îles Cocos, Australie

latitude: 12-11S, longitude: 096-49E, altitude: 3 m

Observation

Le bulletin a été fait il y a 34 minutes, à 15:30 UTC
Vent 15 kt de est/sud-est
Température 27°C
Humidité 84%
Pression 1013 hPa
Visibilité 10 km ou plus
Nuages épars à une hauteur de 1700 ft
Nuages épars à une hauteur de 2400 ft
Nuages fragmentés à une hauteur de 3800 ft

METAR: YPCC 021530Z AUTO 12015KT 9999 // SCT017 SCT024 BKN038 27/24 Q1013

Heure: 22:34 (16:04 UTC)

Prévision

Le bulletin a été fait il y a 4 heures et 47 minutes, à 11:17 UTC
Prévision valable du 02 à 12 UTC au 03 à 12 UTC
Vent 14 kt de sud-est
Visibilité 10 km ou plus
Nuages épars à une hauteur de 1800 ft
Nuages épars à une hauteur de 3500 ft

TAF: YPCC 021117Z 0212/0312 13014KT 9999 SCT018 SCT035

Observations et prévisions météorologiques de plus de 4000 aéroports (messages METAR et TAF).

Les stations disponibles sont représentées par des disques jaunes et rouges sur la carte.

Passer la souris dessus pour voir le nom de la station.

Cliquer dessus pour voir les observations et prévisions météorologiques.

Pour changer de carte: cliquez sur les boutons verts avec une croix noire pour zoomer, sur le bouton vert avec un tiret pour effectuer un zoom arrière, ou sur les flèches vertes pour les cartes adjacentes.


METAR-TAF: